sensor_id;sensor_type;location;lat;lon;timestamp;P1;durP1;ratioP1;P2;durP2;ratioP2
61336;SDS011;47212;41.326;2.104;2024-03-02T00:01:45;6.85;;;2.40;;
61336;SDS011;47212;41.326;2.104;2024-03-02T00:06:57;5.68;;;2.25;;
61336;SDS011;47212;41.326;2.104;2024-03-02T00:12:02;8.55;;;2.92;;
61336;SDS011;47212;41.326;2.104;2024-03-02T00:17:05;6.35;;;2.63;;
61336;SDS011;47212;41.326;2.104;2024-03-02T00:22:25;4.30;;;2.25;;
61336;SDS011;47212;41.326;2.104;2024-03-02T00:27:32;3.74;;;2.09;;
61336;SDS011;47212;41.326;2.104;2024-03-02T00:32:40;3.58;;;1.85;;
61336;SDS011;47212;41.326;2.104;2024-03-02T00:37:44;4.53;;;2.03;;
61336;SDS011;47212;41.326;2.104;2024-03-02T00:42:47;4.97;;;1.98;;
61336;SDS011;47212;41.326;2.104;2024-03-02T00:47:53;5.75;;;1.52;;
61336;SDS011;47212;41.326;2.104;2024-03-02T00:52:59;3.63;;;1.40;;
61336;SDS011;47212;41.326;2.104;2024-03-02T00:58:02;2.85;;;1.40;;
61336;SDS011;47212;41.326;2.104;2024-03-02T01:03:09;4.75;;;1.95;;
61336;SDS011;47212;41.326;2.104;2024-03-02T01:08:16;2.40;;;1.42;;
61336;SDS011;47212;41.326;2.104;2024-03-02T01:13:23;5.50;;;1.63;;
61336;SDS011;47212;41.326;2.104;2024-03-02T01:18:26;2.80;;;1.50;;
61336;SDS011;47212;41.326;2.104;2024-03-02T01:23:29;2.22;;;1.27;;
61336;SDS011;47212;41.326;2.104;2024-03-02T01:28:32;2.38;;;1.40;;
61336;SDS011;47212;41.326;2.104;2024-03-02T01:33:40;2.50;;;1.58;;
61336;SDS011;47212;41.326;2.104;2024-03-02T01:38:42;3.08;;;1.13;;
61336;SDS011;47212;41.326;2.104;2024-03-02T01:43:47;2.65;;;1.50;;
61336;SDS011;47212;41.326;2.104;2024-03-02T01:48:52;2.00;;;1.33;;
61336;SDS011;47212;41.326;2.104;2024-03-02T01:53:55;2.60;;;1.42;;
61336;SDS011;47212;41.326;2.104;2024-03-02T01:59:01;3.00;;;1.42;;
61336;SDS011;47212;41.326;2.104;2024-03-02T02:05:23;2.58;;;1.48;;
61336;SDS011;47212;41.326;2.104;2024-03-02T02:10:25;3.45;;;1.42;;
61336;SDS011;47212;41.326;2.104;2024-03-02T02:20:30;2.15;;;1.30;;
61336;SDS011;47212;41.326;2.104;2024-03-02T02:25:33;2.47;;;1.10;;
61336;SDS011;47212;41.326;2.104;2024-03-02T02:30:36;4.20;;;1.40;;
61336;SDS011;47212;41.326;2.104;2024-03-02T02:35:39;1.70;;;1.10;;
61336;SDS011;47212;41.326;2.104;2024-03-02T02:45:43;2.40;;;1.40;;
61336;SDS011;47212;41.326;2.104;2024-03-02T02:50:45;2.10;;;1.30;;
61336;SDS011;47212;41.326;2.104;2024-03-02T02:55:49;4.13;;;1.33;;
61336;SDS011;47212;41.326;2.104;2024-03-02T03:00:54;3.42;;;1.40;;
61336;SDS011;47212;41.326;2.104;2024-03-02T03:06:04;3.67;;;1.50;;
61336;SDS011;47212;41.326;2.104;2024-03-02T03:11:10;1.63;;;1.10;;
61336;SDS011;47212;41.326;2.104;2024-03-02T03:16:17;1.90;;;1.30;;
61336;SDS011;47212;41.326;2.104;2024-03-02T03:26:26;2.65;;;1.30;;
61336;SDS011;47212;41.326;2.104;2024-03-02T03:31:29;2.80;;;1.55;;
61336;SDS011;47212;41.326;2.104;2024-03-02T03:36:35;1.83;;;1.30;;
61336;SDS011;47212;41.326;2.104;2024-03-02T03:41:40;2.22;;;1.27;;
61336;SDS011;47212;41.326;2.104;2024-03-02T03:46:42;2.50;;;1.58;;
61336;SDS011;47212;41.326;2.104;2024-03-02T03:51:45;2.75;;;1.42;;
61336;SDS011;47212;41.326;2.104;2024-03-02T03:56:48;3.28;;;1.40;;
61336;SDS011;47212;41.326;2.104;2024-03-02T04:01:55;3.80;;;1.40;;
61336;SDS011;47212;41.326;2.104;2024-03-02T04:06:58;2.15;;;1.27;;
61336;SDS011;47212;41.326;2.104;2024-03-02T04:12:01;5.03;;;1.65;;
61336;SDS011;47212;41.326;2.104;2024-03-02T04:17:03;4.22;;;1.80;;
61336;SDS011;47212;41.326;2.104;2024-03-02T04:27:23;3.03;;;1.60;;
61336;SDS011;47212;41.326;2.104;2024-03-02T04:32:28;4.43;;;2.15;;
61336;SDS011;47212;41.326;2.104;2024-03-02T04:37:34;3.60;;;2.13;;
61336;SDS011;47212;41.326;2.104;2024-03-02T04:42:39;4.50;;;2.25;;
61336;SDS011;47212;41.326;2.104;2024-03-02T04:47:43;4.72;;;2.30;;
61336;SDS011;47212;41.326;2.104;2024-03-02T04:52:51;5.80;;;2.67;;
61336;SDS011;47212;41.326;2.104;2024-03-02T04:57:53;4.68;;;2.58;;
61336;SDS011;47212;41.326;2.104;2024-03-02T05:08:45;7.15;;;2.08;;
61336;SDS011;47212;41.326;2.104;2024-03-02T05:13:53;5.90;;;2.55;;
61336;SDS011;47212;41.326;2.104;2024-03-02T05:18:55;6.68;;;2.58;;
61336;SDS011;47212;41.326;2.104;2024-03-02T05:23:57;5.55;;;2.30;;
61336;SDS011;47212;41.326;2.104;2024-03-02T05:29:01;4.38;;;2.42;;
61336;SDS011;47212;41.326;2.104;2024-03-02T05:34:04;5.72;;;2.20;;
61336;SDS011;47212;41.326;2.104;2024-03-02T05:39:07;3.75;;;2.50;;
61336;SDS011;47212;41.326;2.104;2024-03-02T05:44:12;5.85;;;3.00;;
61336;SDS011;47212;41.326;2.104;2024-03-02T05:49:14;4.95;;;2.83;;
61336;SDS011;47212;41.326;2.104;2024-03-02T05:54:20;6.03;;;3.00;;
61336;SDS011;47212;41.326;2.104;2024-03-02T05:59:25;5.70;;;3.22;;
61336;SDS011;47212;41.326;2.104;2024-03-02T06:04:28;7.82;;;3.22;;
61336;SDS011;47212;41.326;2.104;2024-03-02T06:09:30;7.40;;;3.35;;
61336;SDS011;47212;41.326;2.104;2024-03-02T06:14:38;5.13;;;3.08;;
61336;SDS011;47212;41.326;2.104;2024-03-02T06:19:43;6.57;;;3.83;;
61336;SDS011;47212;41.326;2.104;2024-03-02T06:24:49;7.20;;;3.63;;
61336;SDS011;47212;41.326;2.104;2024-03-02T06:29:51;7.25;;;3.40;;
61336;SDS011;47212;41.326;2.104;2024-03-02T06:34:57;6.38;;;3.00;;
61336;SDS011;47212;41.326;2.104;2024-03-02T06:40:02;5.40;;;3.20;;
61336;SDS011;47212;41.326;2.104;2024-03-02T06:45:05;6.20;;;3.35;;
61336;SDS011;47212;41.326;2.104;2024-03-02T06:50:08;6.18;;;3.10;;
61336;SDS011;47212;41.326;2.104;2024-03-02T06:55:11;8.35;;;3.25;;
61336;SDS011;47212;41.326;2.104;2024-03-02T07:05:17;6.88;;;3.55;;
61336;SDS011;47212;41.326;2.104;2024-03-02T07:10:19;6.38;;;3.15;;
61336;SDS011;47212;41.326;2.104;2024-03-02T07:15:21;7.13;;;3.60;;
61336;SDS011;47212;41.326;2.104;2024-03-02T07:20:29;7.15;;;3.17;;
61336;SDS011;47212;41.326;2.104;2024-03-02T07:30:36;4.38;;;2.67;;
61336;SDS011;47212;41.326;2.104;2024-03-02T07:35:40;7.82;;;3.22;;
61336;SDS011;47212;41.326;2.104;2024-03-02T07:45:45;7.25;;;3.08;;
61336;SDS011;47212;41.326;2.104;2024-03-02T07:50:48;5.30;;;3.00;;
61336;SDS011;47212;41.326;2.104;2024-03-02T07:55:50;10.75;;;4.13;;
61336;SDS011;47212;41.326;2.104;2024-03-02T08:05:56;9.82;;;4.78;;
61336;SDS011;47212;41.326;2.104;2024-03-02T08:10:58;9.80;;;5.15;;
61336;SDS011;47212;41.326;2.104;2024-03-02T08:16:02;10.65;;;5.07;;
61336;SDS011;47212;41.326;2.104;2024-03-02T08:21:05;10.43;;;5.10;;
61336;SDS011;47212;41.326;2.104;2024-03-02T08:26:10;9.82;;;5.13;;
61336;SDS011;47212;41.326;2.104;2024-03-02T08:31:13;11.45;;;5.50;;
61336;SDS011;47212;41.326;2.104;2024-03-02T08:41:18;7.65;;;4.13;;
61336;SDS011;47212;41.326;2.104;2024-03-02T08:46:21;6.28;;;3.38;;
61336;SDS011;47212;41.326;2.104;2024-03-02T08:51:24;6.22;;;2.00;;
61336;SDS011;47212;41.326;2.104;2024-03-02T08:56:26;4.05;;;1.63;;
61336;SDS011;47212;41.326;2.104;2024-03-02T09:01:29;6.38;;;1.83;;
61336;SDS011;47212;41.326;2.104;2024-03-02T09:06:32;6.63;;;1.90;;
61336;SDS011;47212;41.326;2.104;2024-03-02T09:11:35;5.60;;;2.08;;
61336;SDS011;47212;41.326;2.104;2024-03-02T09:16:37;6.47;;;2.10;;
61336;SDS011;47212;41.326;2.104;2024-03-02T09:21:41;5.20;;;1.70;;
61336;SDS011;47212;41.326;2.104;2024-03-02T09:26:44;5.43;;;1.90;;
61336;SDS011;47212;41.326;2.104;2024-03-02T09:31:46;5.80;;;1.70;;
61336;SDS011;47212;41.326;2.104;2024-03-02T09:36:49;6.20;;;1.92;;
61336;SDS011;47212;41.326;2.104;2024-03-02T09:41:53;5.38;;;2.05;;
61336;SDS011;47212;41.326;2.104;2024-03-02T09:46:56;5.22;;;1.90;;
61336;SDS011;47212;41.326;2.104;2024-03-02T09:52:01;8.65;;;2.00;;
61336;SDS011;47212;41.326;2.104;2024-03-02T09:57:07;7.82;;;1.98;;
61336;SDS011;47212;41.326;2.104;2024-03-02T10:02:09;6.10;;;2.10;;
61336;SDS011;47212;41.326;2.104;2024-03-02T10:07:16;6.22;;;1.77;;
61336;SDS011;47212;41.326;2.104;2024-03-02T10:12:20;5.45;;;1.98;;
61336;SDS011;47212;41.326;2.104;2024-03-02T10:17:24;6.80;;;2.28;;
61336;SDS011;47212;41.326;2.104;2024-03-02T10:22:33;5.25;;;2.38;;
61336;SDS011;47212;41.326;2.104;2024-03-02T10:27:36;7.20;;;2.80;;
61336;SDS011;47212;41.326;2.104;2024-03-02T10:32:38;11.75;;;2.42;;
61336;SDS011;47212;41.326;2.104;2024-03-02T10:37:40;7.15;;;2.17;;
61336;SDS011;47212;41.326;2.104;2024-03-02T10:42:44;8.52;;;2.60;;
61336;SDS011;47212;41.326;2.104;2024-03-02T10:47:53;5.25;;;1.98;;
61336;SDS011;47212;41.326;2.104;2024-03-02T10:52:55;6.55;;;2.33;;
61336;SDS011;47212;41.326;2.104;2024-03-02T10:57:57;5.78;;;2.20;;
61336;SDS011;47212;41.326;2.104;2024-03-02T11:03:05;3.75;;;1.98;;
61336;SDS011;47212;41.326;2.104;2024-03-02T11:08:18;9.13;;;2.70;;
61336;SDS011;47212;41.326;2.104;2024-03-02T11:13:26;7.68;;;2.20;;
61336;SDS011;47212;41.326;2.104;2024-03-02T11:18:36;5.25;;;2.35;;
61336;SDS011;47212;41.326;2.104;2024-03-02T11:23:39;5.47;;;2.42;;
61336;SDS011;47212;41.326;2.104;2024-03-02T11:28:41;6.43;;;2.15;;
61336;SDS011;47212;41.326;2.104;2024-03-02T11:33:44;8.05;;;2.58;;
61336;SDS011;47212;41.326;2.104;2024-03-02T11:38:48;7.15;;;2.45;;
61336;SDS011;47212;41.326;2.104;2024-03-02T11:43:55;7.28;;;2.38;;
61336;SDS011;47212;41.326;2.104;2024-03-02T11:48:57;8.50;;;2.63;;
61336;SDS011;47212;41.326;2.104;2024-03-02T11:53:59;6.90;;;2.13;;
61336;SDS011;47212;41.326;2.104;2024-03-02T11:59:04;4.85;;;2.10;;
61336;SDS011;47212;41.326;2.104;2024-03-02T12:04:07;6.28;;;2.10;;
61336;SDS011;47212;41.326;2.104;2024-03-02T12:09:10;6.13;;;2.03;;
61336;SDS011;47212;41.326;2.104;2024-03-02T12:14:17;11.32;;;3.22;;
61336;SDS011;47212;41.326;2.104;2024-03-02T12:19:22;8.10;;;2.76;;
61336;SDS011;47212;41.326;2.104;2024-03-02T12:24:28;6.38;;;2.28;;
61336;SDS011;47212;41.326;2.104;2024-03-02T12:29:31;12.45;;;3.50;;
61336;SDS011;47212;41.326;2.104;2024-03-02T12:34:34;14.43;;;3.40;;
61336;SDS011;47212;41.326;2.104;2024-03-02T12:39:37;10.80;;;3.13;;
61336;SDS011;47212;41.326;2.104;2024-03-02T12:44:39;9.10;;;2.83;;
61336;SDS011;47212;41.326;2.104;2024-03-02T12:49:42;8.57;;;2.85;;
61336;SDS011;47212;41.326;2.104;2024-03-02T12:54:44;6.47;;;2.25;;
61336;SDS011;47212;41.326;2.104;2024-03-02T12:59:48;6.88;;;2.53;;
61336;SDS011;47212;41.326;2.104;2024-03-02T13:04:54;10.25;;;2.83;;
61336;SDS011;47212;41.326;2.104;2024-03-02T13:09:56;6.85;;;2.35;;
61336;SDS011;47212;41.326;2.104;2024-03-02T13:14:59;8.48;;;3.33;;
61336;SDS011;47212;41.326;2.104;2024-03-02T13:20:01;8.93;;;3.00;;
61336;SDS011;47212;41.326;2.104;2024-03-02T13:25:06;5.63;;;2.70;;
61336;SDS011;47212;41.326;2.104;2024-03-02T13:30:12;5.20;;;2.50;;
61336;SDS011;47212;41.326;2.104;2024-03-02T13:35:14;5.93;;;2.35;;
61336;SDS011;47212;41.326;2.104;2024-03-02T13:40:17;6.32;;;2.58;;
61336;SDS011;47212;41.326;2.104;2024-03-02T13:45:23;4.63;;;2.10;;
61336;SDS011;47212;41.326;2.104;2024-03-02T13:50:30;7.70;;;2.35;;
61336;SDS011;47212;41.326;2.104;2024-03-02T13:55:32;8.20;;;2.25;;
61336;SDS011;47212;41.326;2.104;2024-03-02T14:00:36;6.65;;;2.47;;
61336;SDS011;47212;41.326;2.104;2024-03-02T14:05:41;10.95;;;2.88;;
61336;SDS011;47212;41.326;2.104;2024-03-02T14:10:44;7.35;;;2.80;;
61336;SDS011;47212;41.326;2.104;2024-03-02T14:15:47;9.25;;;2.45;;
61336;SDS011;47212;41.326;2.104;2024-03-02T14:20:50;11.05;;;3.67;;
61336;SDS011;47212;41.326;2.104;2024-03-02T14:25:54;8.38;;;3.05;;
61336;SDS011;47212;41.326;2.104;2024-03-02T14:30:57;6.72;;;2.60;;
61336;SDS011;47212;41.326;2.104;2024-03-02T14:36:00;7.85;;;2.88;;
61336;SDS011;47212;41.326;2.104;2024-03-02T14:41:03;5.25;;;2.60;;
61336;SDS011;47212;41.326;2.104;2024-03-02T14:46:06;6.05;;;2.30;;
61336;SDS011;47212;41.326;2.104;2024-03-02T14:51:10;5.63;;;2.50;;
61336;SDS011;47212;41.326;2.104;2024-03-02T14:56:17;7.95;;;2.15;;
61336;SDS011;47212;41.326;2.104;2024-03-02T15:01:19;6.35;;;2.70;;
61336;SDS011;47212;41.326;2.104;2024-03-02T15:06:27;4.05;;;2.13;;
61336;SDS011;47212;41.326;2.104;2024-03-02T15:11:45;6.85;;;2.38;;
61336;SDS011;47212;41.326;2.104;2024-03-02T15:16:51;8.70;;;3.08;;
61336;SDS011;47212;41.326;2.104;2024-03-02T15:21:54;6.93;;;2.75;;
61336;SDS011;47212;41.326;2.104;2024-03-02T15:26:59;10.98;;;3.40;;
61336;SDS011;47212;41.326;2.104;2024-03-02T15:32:10;8.60;;;3.00;;
61336;SDS011;47212;41.326;2.104;2024-03-02T15:37:14;10.27;;;3.50;;
61336;SDS011;47212;41.326;2.104;2024-03-02T15:42:22;9.90;;;3.00;;
61336;SDS011;47212;41.326;2.104;2024-03-02T15:47:26;6.22;;;2.75;;
61336;SDS011;47212;41.326;2.104;2024-03-02T15:52:31;9.38;;;3.17;;
61336;SDS011;47212;41.326;2.104;2024-03-02T15:57:34;10.63;;;3.22;;
61336;SDS011;47212;41.326;2.104;2024-03-02T16:02:40;12.20;;;3.53;;
61336;SDS011;47212;41.326;2.104;2024-03-02T16:07:43;10.05;;;3.00;;
61336;SDS011;47212;41.326;2.104;2024-03-02T16:12:48;10.10;;;3.28;;
61336;SDS011;47212;41.326;2.104;2024-03-02T16:17:51;9.98;;;3.60;;
61336;SDS011;47212;41.326;2.104;2024-03-02T16:22:55;10.60;;;3.00;;
61336;SDS011;47212;41.326;2.104;2024-03-02T16:27:58;14.63;;;3.28;;
61336;SDS011;47212;41.326;2.104;2024-03-02T16:33:03;10.25;;;3.03;;
61336;SDS011;47212;41.326;2.104;2024-03-02T16:38:06;12.88;;;3.53;;
61336;SDS011;47212;41.326;2.104;2024-03-02T16:43:08;12.00;;;3.13;;
61336;SDS011;47212;41.326;2.104;2024-03-02T16:48:11;12.90;;;4.38;;
61336;SDS011;47212;41.326;2.104;2024-03-02T16:53:13;18.15;;;3.70;;
61336;SDS011;47212;41.326;2.104;2024-03-02T16:58:17;12.93;;;4.03;;
61336;SDS011;47212;41.326;2.104;2024-03-02T17:03:22;13.13;;;3.53;;
61336;SDS011;47212;41.326;2.104;2024-03-02T17:08:24;12.65;;;4.00;;
61336;SDS011;47212;41.326;2.104;2024-03-02T17:13:28;13.18;;;3.30;;
61336;SDS011;47212;41.326;2.104;2024-03-02T17:18:30;14.77;;;3.60;;
61336;SDS011;47212;41.326;2.104;2024-03-02T17:23:32;9.50;;;3.00;;
61336;SDS011;47212;41.326;2.104;2024-03-02T17:28:34;16.70;;;3.47;;
61336;SDS011;47212;41.326;2.104;2024-03-02T17:33:36;13.35;;;3.70;;
61336;SDS011;47212;41.326;2.104;2024-03-02T17:38:41;14.48;;;3.97;;
61336;SDS011;47212;41.326;2.104;2024-03-02T17:43:46;13.73;;;4.13;;
61336;SDS011;47212;41.326;2.104;2024-03-02T17:48:48;15.90;;;4.25;;
61336;SDS011;47212;41.326;2.104;2024-03-02T17:53:51;18.08;;;5.00;;
61336;SDS011;47212;41.326;2.104;2024-03-02T17:58:54;18.42;;;4.88;;
61336;SDS011;47212;41.326;2.104;2024-03-02T18:08:59;18.35;;;3.80;;
61336;SDS011;47212;41.326;2.104;2024-03-02T18:14:05;21.90;;;4.65;;
61336;SDS011;47212;41.326;2.104;2024-03-02T18:19:07;20.77;;;4.45;;
61336;SDS011;47212;41.326;2.104;2024-03-02T18:24:11;23.98;;;4.80;;
61336;SDS011;47212;41.326;2.104;2024-03-02T18:34:18;15.27;;;4.47;;
61336;SDS011;47212;41.326;2.104;2024-03-02T18:39:20;15.38;;;4.05;;
61336;SDS011;47212;41.326;2.104;2024-03-02T18:44:22;14.82;;;4.03;;
61336;SDS011;47212;41.326;2.104;2024-03-02T18:49:25;16.38;;;4.20;;
61336;SDS011;47212;41.326;2.104;2024-03-02T18:54:27;14.95;;;4.28;;
61336;SDS011;47212;41.326;2.104;2024-03-02T18:59:30;19.98;;;4.32;;
61336;SDS011;47212;41.326;2.104;2024-03-02T19:04:32;14.93;;;4.18;;
61336;SDS011;47212;41.326;2.104;2024-03-02T19:09:34;14.00;;;4.30;;
61336;SDS011;47212;41.326;2.104;2024-03-02T19:14:37;13.88;;;4.43;;
61336;SDS011;47212;41.326;2.104;2024-03-02T19:19:40;15.18;;;3.55;;
61336;SDS011;47212;41.326;2.104;2024-03-02T19:24:43;15.27;;;3.90;;
61336;SDS011;47212;41.326;2.104;2024-03-02T19:29:46;14.63;;;3.80;;
61336;SDS011;47212;41.326;2.104;2024-03-02T19:34:58;15.95;;;4.18;;
61336;SDS011;47212;41.326;2.104;2024-03-02T19:40:02;12.57;;;3.30;;
61336;SDS011;47212;41.326;2.104;2024-03-02T19:45:06;13.60;;;4.00;;
61336;SDS011;47212;41.326;2.104;2024-03-02T19:50:09;13.90;;;3.85;;
61336;SDS011;47212;41.326;2.104;2024-03-02T19:55:22;15.73;;;3.70;;
61336;SDS011;47212;41.326;2.104;2024-03-02T20:00:31;16.70;;;3.85;;
61336;SDS011;47212;41.326;2.104;2024-03-02T20:05:33;18.10;;;3.95;;
61336;SDS011;47212;41.326;2.104;2024-03-02T20:10:36;15.73;;;3.85;;
61336;SDS011;47212;41.326;2.104;2024-03-02T20:15:39;9.48;;;3.13;;
61336;SDS011;47212;41.326;2.104;2024-03-02T20:20:44;14.20;;;3.65;;
61336;SDS011;47212;41.326;2.104;2024-03-02T20:25:52;11.32;;;3.35;;
61336;SDS011;47212;41.326;2.104;2024-03-02T20:30:56;14.45;;;3.22;;
61336;SDS011;47212;41.326;2.104;2024-03-02T20:35:58;14.00;;;3.85;;
61336;SDS011;47212;41.326;2.104;2024-03-02T20:41:01;12.55;;;3.97;;
61336;SDS011;47212;41.326;2.104;2024-03-02T20:46:05;13.85;;;4.22;;
61336;SDS011;47212;41.326;2.104;2024-03-02T20:51:15;14.43;;;3.67;;
61336;SDS011;47212;41.326;2.104;2024-03-02T20:56:19;14.60;;;3.45;;
61336;SDS011;47212;41.326;2.104;2024-03-02T21:01:29;15.68;;;4.13;;
61336;SDS011;47212;41.326;2.104;2024-03-02T21:06:35;22.75;;;4.18;;
61336;SDS011;47212;41.326;2.104;2024-03-02T21:11:38;14.02;;;3.97;;
61336;SDS011;47212;41.326;2.104;2024-03-02T21:16:44;12.75;;;4.15;;
61336;SDS011;47212;41.326;2.104;2024-03-02T21:21:47;13.73;;;3.70;;
61336;SDS011;47212;41.326;2.104;2024-03-02T21:27:03;14.93;;;4.30;;
61336;SDS011;47212;41.326;2.104;2024-03-02T21:32:07;12.90;;;2.88;;
61336;SDS011;47212;41.326;2.104;2024-03-02T21:37:18;12.23;;;3.08;;
61336;SDS011;47212;41.326;2.104;2024-03-02T21:42:22;13.38;;;3.35;;
61336;SDS011;47212;41.326;2.104;2024-03-02T21:47:27;14.20;;;3.42;;
61336;SDS011;47212;41.326;2.104;2024-03-02T21:52:31;9.02;;;2.90;;
61336;SDS011;47212;41.326;2.104;2024-03-02T21:57:39;19.58;;;3.88;;
61336;SDS011;47212;41.326;2.104;2024-03-02T22:02:42;9.93;;;2.65;;
61336;SDS011;47212;41.326;2.104;2024-03-02T22:07:44;11.82;;;2.92;;
61336;SDS011;47212;41.326;2.104;2024-03-02T22:12:47;19.45;;;3.95;;
61336;SDS011;47212;41.326;2.104;2024-03-02T22:17:49;17.35;;;4.13;;
61336;SDS011;47212;41.326;2.104;2024-03-02T22:22:52;18.85;;;4.53;;
61336;SDS011;47212;41.326;2.104;2024-03-02T22:27:54;15.07;;;4.03;;
61336;SDS011;47212;41.326;2.104;2024-03-02T22:32:57;13.07;;;3.53;;
61336;SDS011;47212;41.326;2.104;2024-03-02T22:38:00;16.77;;;4.43;;
61336;SDS011;47212;41.326;2.104;2024-03-02T22:43:02;22.90;;;5.50;;
61336;SDS011;47212;41.326;2.104;2024-03-02T22:48:05;17.13;;;4.70;;
61336;SDS011;47212;41.326;2.104;2024-03-02T22:53:08;21.20;;;4.55;;
61336;SDS011;47212;41.326;2.104;2024-03-02T22:58:10;24.95;;;4.97;;
61336;SDS011;47212;41.326;2.104;2024-03-02T23:03:13;14.85;;;4.43;;
61336;SDS011;47212;41.326;2.104;2024-03-02T23:08:16;13.65;;;5.07;;
61336;SDS011;47212;41.326;2.104;2024-03-02T23:13:18;23.13;;;5.03;;
61336;SDS011;47212;41.326;2.104;2024-03-02T23:18:21;20.73;;;5.00;;
61336;SDS011;47212;41.326;2.104;2024-03-02T23:23:23;20.00;;;4.95;;
61336;SDS011;47212;41.326;2.104;2024-03-02T23:28:26;17.65;;;5.07;;
61336;SDS011;47212;41.326;2.104;2024-03-02T23:33:29;22.20;;;4.72;;
61336;SDS011;47212;41.326;2.104;2024-03-02T23:38:32;19.40;;;5.05;;
61336;SDS011;47212;41.326;2.104;2024-03-02T23:48:37;24.38;;;4.55;;
61336;SDS011;47212;41.326;2.104;2024-03-02T23:53:41;18.13;;;4.50;;
